Time;durP1;ratioP1;P1;durP2;ratioP2;P2;SDS_P1;SDS_P2;PMS_P1;PMS_P2;Temp;Humidity;BMP_temperature;BMP_pressure;BME280_temperature;BME280_humidity;BME280_pressure;Samples;Min_cycle;Max_cycle;Signal;HPM_P1;HPM_P2
2022/04/23 00:00:05;;;;;;;7.95;2.33;;;;;;;6.12;100.00;90033.56;5013411;28;20041;-64
2022/04/23 00:02:30;;;;;;;4.05;1.80;;;;;;;5.95;100.00;90028.19;5031163;28;20116;-64
2022/04/23 00:04:56;;;;;;;2.10;1.73;;;;;;;5.93;100.00;90015.31;5031217;28;20113;-64
2022/04/23 00:07:21;;;;;;;3.28;1.88;;;;;;;5.90;100.00;90023.84;5031174;28;20410;-64
2022/04/23 00:09:47;;;;;;;1.77;1.67;;;;;;;5.91;100.00;90037.81;5031072;28;20040;-64
2022/04/23 00:12:12;;;;;;;5.43;2.42;;;;;;;5.94;100.00;90053.03;5030970;28;20422;-64
2022/04/23 00:14:37;;;;;;;1.48;1.38;;;;;;;5.97;100.00;90040.00;5013420;28;20563;-64
2022/04/23 00:17:03;;;;;;;1.50;1.38;;;;;;;6.06;100.00;90037.44;5031089;28;20033;-64
2022/04/23 00:19:29;;;;;;;1.45;1.35;;;;;;;5.95;100.00;90038.75;5030985;28;20044;-64
2022/04/23 00:21:54;;;;;;;1.42;1.33;;;;;;;5.80;100.00;90042.50;5030945;28;20124;-64
2022/04/23 00:24:20;;;;;;;3.50;2.90;;;;;;;5.70;100.00;90062.03;5031020;28;20423;-64
2022/04/23 00:26:45;;;;;;;1.33;1.23;;;;;;;5.78;100.00;90063.16;5031165;28;20121;-64
2022/04/23 00:29:11;;;;;;;1.10;1.02;;;;;;;5.97;100.00;90041.88;5030895;28;20503;-64
2022/04/23 00:31:36;;;;;;;1.60;1.50;;;;;;;5.98;100.00;90038.16;5030904;28;20068;-64
2022/04/23 00:34:02;;;;;;;1.15;1.15;;;;;;;5.94;100.00;90045.13;5030928;28;20040;-64
2022/04/23 00:36:28;;;;;;;3.35;1.83;;;;;;;5.92;100.00;90031.44;5030869;28;20500;-64
2022/04/23 00:38:54;;;;;;;2.30;2.10;;;;;;;5.84;100.00;90017.09;5030789;28;20083;-64
2022/04/23 00:44:07;;;;;;;2.63;1.58;;;;;;;5.93;100.00;90048.84;5035144;28;20040;-64
2022/04/23 00:46:33;;;;;;;1.20;1.20;;;;;;;5.94;100.00;90027.41;5034728;28;20049;-64
2022/04/23 00:48:59;;;;;;;1.50;1.40;;;;;;;5.98;100.00;90036.28;5034776;28;20103;-65
2022/04/23 00:51:29;;;;;;;1.45;1.20;;;;;;;5.97;100.00;90045.28;5034565;28;20045;-64
2022/04/23 00:53:56;;;;;;;1.17;1.17;;;;;;;5.93;100.00;90035.66;5034807;28;20091;-64
2022/04/23 00:56:23;;;;;;;1.00;1.00;;;;;;;5.83;100.00;90041.13;5034626;28;20049;-64
2022/04/23 00:58:50;;;;;;;1.35;1.17;;;;;;;5.84;100.00;90058.53;5034508;28;20091;-64
2022/04/23 01:01:15;;;;;;;1.55;1.42;;;;;;;5.80;100.00;90047.78;5034305;28;20048;-64
2022/04/23 01:03:42;;;;;;;1.30;1.20;;;;;;;5.79;100.00;90040.19;5034465;28;20415;-64
2022/04/23 01:06:10;;;;;;;1.45;1.25;;;;;;;5.98;100.00;90051.34;5034628;28;20042;-64
2022/04/23 01:08:37;;;;;;;1.08;1.08;;;;;;;6.14;100.00;90038.53;5034370;28;20499;-64
2022/04/23 01:11:03;;;;;;;1.20;1.20;;;;;;;6.15;100.00;90034.81;5034033;28;20083;-64
2022/04/23 01:13:29;;;;;;;0.93;0.93;;;;;;;6.16;100.00;90033.75;5034325;28;20037;-64
2022/04/23 01:16:05;;;;;;;1.65;1.55;;;;;;;6.11;100.00;90055.78;5034269;28;20041;-64
2022/04/23 01:18:32;;;;;;;1.05;1.02;;;;;;;6.06;100.00;90049.84;5034156;28;20136;-64
2022/04/23 01:20:59;;;;;;;1.00;1.00;;;;;;;5.96;100.00;90056.16;5033921;28;20030;-64
2022/04/23 01:23:25;;;;;;;1.30;1.20;;;;;;;5.93;100.00;90048.84;5034083;28;20087;-64
2022/04/23 01:25:53;;;;;;;1.48;1.10;;;;;;;5.97;100.00;90060.34;5034058;28;20112;-64
2022/04/23 01:28:23;;;;;;;1.90;0.85;;;;;;;5.87;100.00;90052.66;5034031;28;20064;-64
2022/04/23 01:30:52;;;;;;;1.00;1.00;;;;;;;5.77;100.00;90066.09;5033771;28;20041;-65
2022/04/23 01:33:18;;;;;;;1.23;1.23;;;;;;;5.59;100.00;90073.09;5034061;28;20038;-65
2022/04/23 01:35:44;;;;;;;1.05;1.05;;;;;;;5.50;100.00;90073.03;5033984;28;20528;-65
2022/04/23 01:38:11;;;;;;;2.50;1.55;;;;;;;5.41;100.00;90046.59;5033929;28;20037;-65
2022/04/23 01:40:36;;;;;;;1.55;1.45;;;;;;;5.42;100.00;90060.56;5033739;28;20038;-65
2022/04/23 01:43:02;;;;;;;1.40;1.30;;;;;;;5.52;100.00;90041.84;5034546;28;20059;-65
2022/04/23 01:45:27;;;;;;;0.80;0.80;;;;;;;5.64;100.00;90050.00;5035161;28;20049;-65
2022/04/23 01:47:53;;;;;;;1.17;1.17;;;;;;;5.68;100.00;90061.56;5035277;28;20063;-65
2022/04/23 01:50:18;;;;;;;1.20;1.20;;;;;;;5.71;100.00;90063.59;5034213;28;20474;-65
2022/04/23 01:52:44;;;;;;;2.15;1.23;;;;;;;5.64;100.00;90060.56;5032689;28;20503;-65
2022/04/23 01:55:09;;;;;;;1.27;1.27;;;;;;;5.61;100.00;90061.16;5033577;28;20503;-65
2022/04/23 01:57:35;;;;;;;1.10;1.10;;;;;;;5.70;100.00;90061.25;5033537;28;20045;-65
2022/04/23 02:00:00;;;;;;;0.90;0.90;;;;;;;5.72;100.00;90070.41;5033342;28;20068;-65
2022/04/23 02:02:26;;;;;;;0.82;0.82;;;;;;;5.78;100.00;90055.22;5033405;28;20092;-65
2022/04/23 02:04:51;;;;;;;2.17;1.42;;;;;;;5.73;100.00;90050.09;5033290;28;20084;-65
2022/04/23 02:07:17;;;;;;;1.75;1.50;;;;;;;5.91;100.00;90057.06;5033207;28;20472;-65
2022/04/23 02:09:42;;;;;;;1.55;1.23;;;;;;;6.08;100.00;90059.03;5033190;28;20051;-65
2022/04/23 02:12:08;;;;;;;1.60;1.50;;;;;;;6.13;100.00;90043.03;5032935;28;20037;-64
2022/04/23 02:14:35;;;;;;;0.80;0.80;;;;;;;6.11;100.00;90053.13;5033102;28;20128;-65
2022/04/23 02:17:01;;;;;;;1.35;1.25;;;;;;;6.13;100.00;90048.31;5033138;28;20044;-65
2022/04/23 02:22:17;;;;;;;0.90;0.90;;;;;;;5.83;100.00;90052.47;4992128;28;20064;-64
2022/04/23 02:24:42;;;;;;;1.42;1.33;;;;;;;5.78;100.00;90062.38;4993617;28;20042;-65
2022/04/23 02:27:08;;;;;;;3.55;1.75;;;;;;;5.86;100.00;90056.38;4993567;28;20022;-64
2022/04/23 02:29:33;;;;;;;1.42;1.33;;;;;;;5.83;100.00;90056.97;4993399;28;20034;-66
2022/04/23 02:31:59;;;;;;;1.67;1.30;;;;;;;5.91;100.00;90051.00;4993535;28;20019;-65
2022/04/23 02:34:24;;;;;;;1.52;1.42;;;;;;;5.93;100.00;90041.69;4993428;28;20030;-63
2022/04/23 02:36:49;;;;;;;1.40;1.30;;;;;;;6.00;100.00;90041.28;4993719;28;20031;-64
2022/04/23 02:39:15;;;;;;;0.90;0.90;;;;;;;6.08;100.00;90045.03;4993364;28;20527;-65
2022/04/23 02:41:40;;;;;;;1.13;1.10;;;;;;;6.24;100.00;90039.06;4993327;28;20019;-65
2022/04/23 02:44:06;;;;;;;1.92;1.25;;;;;;;6.36;100.00;90038.50;4993329;28;20042;-65
2022/04/23 02:46:31;;;;;;;2.65;2.20;;;;;;;6.26;100.00;90063.31;4993263;28;20028;-65
2022/04/23 02:48:58;;;;;;;1.25;1.15;;;;;;;5.78;100.00;90070.28;4992957;28;20049;-65
2022/04/23 02:51:24;;;;;;;3.30;1.77;;;;;;;5.57;100.00;90068.13;4993125;28;20022;-65
2022/04/23 02:53:49;;;;;;;1.40;1.30;;;;;;;5.53;100.00;90076.94;4993170;28;20035;-65
2022/04/23 02:56:17;;;;;;;1.23;1.13;;;;;;;5.50;100.00;90077.53;4993123;28;20040;-65
2022/04/23 02:58:43;;;;;;;0.90;0.90;;;;;;;5.37;100.00;90071.22;4992936;28;20479;-64
2022/04/23 03:01:10;;;;;;;1.10;1.10;;;;;;;5.28;100.00;90073.78;4992822;28;20105;-65
2022/04/23 03:03:40;;;;;;;1.10;1.10;;;;;;;5.27;100.00;90082.00;4975414;28;20483;-65
2022/04/23 03:06:07;;;;;;;2.85;1.40;;;;;;;5.18;100.00;90076.63;4993172;28;20085;-63
2022/04/23 03:08:35;;;;;;;1.70;1.60;;;;;;;5.09;100.00;90071.28;4992719;28;20034;-64
2022/04/23 03:11:00;;;;;;;1.35;1.25;;;;;;;5.05;100.00;90072.97;4992739;28;20032;-64
2022/04/23 03:13:26;;;;;;;2.13;1.45;;;;;;;5.04;100.00;90081.94;4992646;28;20030;-64
2022/04/23 03:15:52;;;;;;;1.23;1.20;;;;;;;5.11;100.00;90082.31;4992663;28;20042;-64
2022/04/23 03:18:17;;;;;;;1.55;1.45;;;;;;;5.17;100.00;90076.94;4992640;28;20093;-64
2022/04/23 03:20:44;;;;;;;10.68;2.00;;;;;;;5.11;100.00;90071.00;4992255;28;20133;-65
2022/04/23 03:23:12;;;;;;;1.48;1.38;;;;;;;5.14;100.00;90082.81;4992687;28;20067;-65
2022/04/23 03:25:38;;;;;;;2.17;1.75;;;;;;;5.21;100.00;90078.69;4992571;28;20069;-65
2022/04/23 03:28:04;;;;;;;2.05;1.95;;;;;;;5.29;100.00;90069.28;4992478;28;20084;-65
2022/04/23 03:30:30;;;;;;;3.55;1.45;;;;;;;5.36;100.00;90064.38;4992396;28;20601;-65
2022/04/23 03:32:56;;;;;;;1.63;1.48;;;;;;;5.42;100.00;90065.84;4992402;28;20122;-65
2022/04/23 03:35:22;;;;;;;2.15;1.52;;;;;;;5.53;100.00;90075.09;4992217;28;20034;-64
2022/04/23 03:37:48;;;;;;;1.27;1.23;;;;;;;5.63;100.00;90063.50;4992375;28;20031;-64
2022/04/23 03:40:14;;;;;;;2.22;1.65;;;;;;;5.83;100.00;90057.75;4992406;28;20030;-64
2022/04/23 03:42:40;;;;;;;1.65;1.55;;;;;;;5.93;100.00;90051.47;4992289;28;20038;-64
2022/04/23 03:45:09;;;;;;;2.03;1.83;;;;;;;6.05;100.00;90053.56;4992543;28;20117;-64
2022/04/23 03:47:35;;;;;;;2.03;1.83;;;;;;;6.11;100.00;90042.56;4992073;28;20800;-64
2022/04/23 03:50:05;;;;;;;1.15;1.15;;;;;;;6.26;100.00;90050.09;4991947;28;20073;-63
2022/04/23 03:52:31;;;;;;;1.42;1.33;;;;;;;6.35;100.00;90047.50;4992058;28;20037;-64
2022/04/23 03:54:56;;;;;;;1.35;1.17;;;;;;;6.53;100.00;90045.72;4992086;28;20035;-63
2022/04/23 03:57:22;;;;;;;1.98;1.77;;;;;;;6.61;100.00;90042.31;4992020;28;20033;-63
2022/04/23 03:59:47;;;;;;;2.55;2.35;;;;;;;6.61;100.00;90045.75;4991832;28;20081;-63
2022/04/23 04:02:13;;;;;;;2.63;1.23;;;;;;;6.58;100.00;90040.28;4991930;28;20030;-63
2022/04/23 04:04:38;;;;;;;1.48;1.05;;;;;;;6.63;100.00;90049.94;4992014;28;20088;-64
2022/04/23 04:07:05;;;;;;;2.80;1.10;;;;;;;6.60;100.00;90046.81;4991760;28;20022;-64
2022/04/23 04:09:31;;;;;;;1.10;1.08;;;;;;;6.59;100.00;90052.41;4991799;28;20505;-64
2022/04/23 04:12:02;;;;;;;2.05;1.70;;;;;;;6.60;100.00;90059.25;4991931;28;20026;-63
2022/04/23 04:14:33;;;;;;;1.63;1.52;;;;;;;6.55;100.00;90056.75;4991945;28;20034;-64
2022/04/23 04:17:00;;;;;;;1.58;1.25;;;;;;;6.46;100.00;90058.56;4991382;28;20526;-64
2022/04/23 04:19:30;;;;;;;3.45;2.25;;;;;;;6.47;100.00;90054.84;4991994;28;20034;-64
2022/04/23 04:21:57;;;;;;;3.42;2.40;;;;;;;6.61;100.00;90066.09;4991666;28;20061;-64
2022/04/23 04:24:23;;;;;;;10.73;3.47;;;;;;;6.51;100.00;90061.09;4991841;28;20027;-65
2022/04/23 04:26:49;;;;;;;3.08;2.83;;;;;;;6.51;100.00;90063.75;4991868;28;20108;-64
2022/04/23 04:29:15;;;;;;;3.35;2.03;;;;;;;6.54;100.00;90061.28;4991702;28;20049;-64
2022/04/23 04:31:50;;;;;;;2.63;2.35;;;;;;;6.57;100.00;90067.81;4991811;28;20053;-63
2022/04/23 04:34:35;;;;;;;2.13;1.73;;;;;;;6.54;100.00;90071.06;4991786;28;20038;-64
2022/04/23 04:37:04;;;;;;;3.88;2.13;;;;;;;6.61;100.00;90066.09;4991425;28;20133;-63
2022/04/23 04:39:30;;;;;;;2.92;1.85;;;;;;;6.65;100.00;90068.94;4991553;28;20050;-64
2022/04/23 04:41:55;;;;;;;4.40;3.10;;;;;;;6.74;100.00;90075.00;4991614;28;20034;-64
2022/04/23 04:44:20;;;;;;;6.82;3.88;;;;;;;6.96;100.00;90085.53;4991665;28;20034;-64
2022/04/23 04:46:46;;;;;;;2.70;2.33;;;;;;;7.08;100.00;90090.97;4991625;28;20100;-64
2022/04/23 04:49:11;;;;;;;1.88;1.75;;;;;;;7.26;100.00;90096.31;4991491;28;20511;-64
2022/04/23 04:51:37;;;;;;;4.85;2.17;;;;;;;7.44;100.00;90098.69;4991490;28;20514;-65
2022/04/23 04:54:04;;;;;;;2.15;1.95;;;;;;;7.58;100.00;90103.06;4991584;28;20122;-65
2022/04/23 04:56:29;;;;;;;9.55;2.50;;;;;;;7.46;100.00;90101.03;4991503;28;20496;-65
2022/04/23 04:58:55;;;;;;;3.92;2.58;;;;;;;7.40;100.00;90108.31;4991543;28;20033;-65
2022/04/23 05:01:21;;;;;;;2.83;2.33;;;;;;;7.37;100.00;90113.44;4991335;28;20055;-65
2022/04/23 05:03:46;;;;;;;9.23;3.42;;;;;;;7.27;100.00;90113.75;4991435;28;20089;-65
2022/04/23 05:06:12;;;;;;;6.30;3.67;;;;;;;7.33;100.00;90118.59;4991366;28;20049;-65
2022/04/23 05:08:38;;;;;;;2.40;2.08;;;;;;;7.78;100.00;90129.72;4991433;28;20105;-65
2022/04/23 05:11:05;;;;;;;6.22;3.03;;;;;;;8.16;100.00;90123.00;4991366;28;20027;-65
2022/04/23 05:13:30;;;;;;;8.90;3.53;;;;;;;8.09;100.00;90124.25;4989879;28;20096;-66
2022/04/23 05:15:57;;;;;;;5.53;2.83;;;;;;;8.16;100.00;90123.00;4991132;28;20030;-67
2022/04/23 05:18:22;;;;;;;2.92;2.58;;;;;;;8.38;100.00;90125.50;4991243;28;20033;-66
2022/04/23 05:20:48;;;;;;;4.10;2.90;;;;;;;10.35;100.00;90124.84;4990806;28;20046;-67
2022/04/23 05:23:14;;;;;;;5.00;2.55;;;;;;;13.76;100.00;90118.09;4990263;28;20022;-67
2022/04/23 05:25:39;;;;;;;4.20;3.08;;;;;;;16.28;74.27;90121.25;4991129;28;20038;-67
2022/04/23 05:28:05;;;;;;;4.13;2.67;;;;;;;15.12;73.81;90118.97;4984895;28;20090;-67
2022/04/23 05:30:31;;;;;;;5.18;2.53;;;;;;;16.91;65.90;90115.19;4993260;28;20036;-65
2022/04/23 05:32:56;;;;;;;2.97;1.90;;;;;;;18.01;60.90;90120.88;4994554;28;20031;-67
2022/04/23 05:35:21;;;;;;;1.92;1.73;;;;;;;17.81;59.56;90131.09;4994480;28;20033;-66
2022/04/23 05:37:47;;;;;;;3.58;1.77;;;;;;;19.61;55.46;90137.13;4994203;28;20519;-66
2022/04/23 05:40:12;;;;;;;1.95;1.85;;;;;;;22.13;49.55;90130.38;4976497;28;20480;-67
2022/04/23 05:42:38;;;;;;;9.65;3.05;;;;;;;24.12;44.57;90147.25;4994222;28;20031;-66
2022/04/23 05:45:04;;;;;;;2.35;2.13;;;;;;;24.92;41.20;90145.63;4994177;28;20101;-67
2022/04/23 05:47:30;;;;;;;1.90;1.63;;;;;;;25.80;40.25;90153.38;4994047;28;20034;-67
2022/04/23 05:49:55;;;;;;;9.73;4.60;;;;;;;26.79;37.31;90149.63;4992264;28;20040;-66
2022/04/23 05:52:21;;;;;;;13.82;5.55;;;;;;;26.07;38.35;90144.25;4993969;28;20030;-65
2022/04/23 05:54:46;;;;;;;12.90;5.65;;;;;;;27.84;35.61;90146.56;4993484;28;20031;-65
2022/04/23 05:57:11;;;;;;;4.78;2.45;;;;;;;28.09;35.13;90145.81;4988313;28;20030;-66
2022/04/23 05:59:37;;;;;;;2.95;2.70;;;;;;;29.09;33.94;90144.31;4987122;28;20022;-66
2022/04/23 06:02:03;;;;;;;3.30;2.75;;;;;;;27.64;35.01;90142.03;4975500;28;20482;-65
2022/04/23 06:04:29;;;;;;;4.35;2.50;;;;;;;27.87;34.75;90156.63;4992836;28;20015;-66
2022/04/23 06:06:55;;;;;;;4.63;3.30;;;;;;;27.83;34.95;90143.06;4991832;28;20022;-67
2022/04/23 06:09:21;;;;;;;6.53;3.50;;;;;;;29.59;32.94;90148.13;4997941;28;20509;-66
2022/04/23 06:11:47;;;;;;;4.05;3.08;;;;;;;28.07;34.17;90145.50;5000831;28;20046;-66
2022/04/23 06:14:13;;;;;;;5.95;3.50;;;;;;;26.88;36.24;90149.81;4982809;28;20093;-68
2022/04/23 06:16:38;;;;;;;6.95;5.18;;;;;;;27.30;35.26;90150.72;4981343;28;20037;-68
2022/04/23 06:19:05;;;;;;;4.78;3.63;;;;;;;29.45;33.26;90159.56;4986898;28;20030;-67
2022/04/23 06:21:30;;;;;;;6.13;4.05;;;;;;;29.84;32.72;90149.25;4991313;28;20060;-66
2022/04/23 06:23:55;;;;;;;3.65;3.30;;;;;;;27.23;34.68;90156.34;4991694;28;20022;-67
2022/04/23 06:26:21;;;;;;;3.83;2.67;;;;;;;25.36;36.46;90149.91;4991867;28;20027;-66
2022/04/23 06:28:47;;;;;;;6.32;3.88;;;;;;;27.22;36.29;90151.31;4989113;28;20026;-67
2022/04/23 06:31:13;;;;;;;12.95;4.45;;;;;;;25.12;37.79;90147.69;4971040;28;20027;-66
2022/04/23 06:33:39;;;;;;;5.95;3.92;;;;;;;22.03;41.54;90153.63;4983288;28;20049;-67
2022/04/23 06:36:04;;;;;;;9.35;4.03;;;;;;;19.33;46.91;90153.97;4981859;28;20019;-66
2022/04/23 06:38:30;;;;;;;7.35;4.75;;;;;;;18.48;49.43;90159.69;4984281;28;20034;-65
2022/04/23 06:40:55;;;;;;;11.85;7.03;;;;;;;17.70;50.79;90165.22;4986428;28;20491;-65
2022/04/23 06:43:21;;;;;;;5.95;2.85;;;;;;;16.93;53.21;90161.28;4988193;28;20030;-65
2022/04/23 06:45:46;;;;;;;4.10;3.05;;;;;;;16.66;55.06;90157.06;4988582;28;20041;-65
2022/04/23 06:48:12;;;;;;;3.25;2.58;;;;;;;15.63;59.15;90150.94;4987358;28;20021;-66
2022/04/23 06:50:37;;;;;;;4.10;1.88;;;;;;;14.68;63.97;90159.47;4963406;28;20034;-65
2022/04/23 06:53:04;;;;;;;2.40;2.20;;;;;;;14.41;67.38;90165.75;4983791;28;20025;-65
2022/04/23 06:55:30;;;;;;;2.85;2.30;;;;;;;14.44;68.39;90156.28;4966378;28;20057;-66
2022/04/23 06:57:56;;;;;;;3.40;2.72;;;;;;;15.22;66.93;90168.53;4990259;28;20031;-65
2022/04/23 07:00:22;;;;;;;2.92;2.00;;;;;;;17.91;62.28;90161.94;4990331;28;20026;-65
2022/04/23 07:02:51;;;;;;;1.63;1.50;;;;;;;21.05;47.95;90167.22;4990160;28;20046;-66
2022/04/23 07:05:18;;;;;;;1.98;1.85;;;;;;;24.12;42.23;90160.84;4990363;28;20030;-66
2022/04/23 07:08:01;;;;;;;3.55;2.63;;;;;;;25.74;39.92;90168.69;4990263;28;20022;-66
2022/04/23 07:10:28;;;;;;;3.63;1.90;;;;;;;26.83;36.60;90170.19;4988366;28;20030;-65
2022/04/23 07:12:55;;;;;;;2.47;1.98;;;;;;;27.06;36.14;90163.81;4990852;28;20026;-67
2022/04/23 07:15:22;;;;;;;2.88;2.53;;;;;;;26.84;35.37;90179.16;4988140;28;20034;-66
2022/04/23 07:17:49;;;;;;;3.00;2.20;;;;;;;21.39;42.61;90174.84;4990559;28;20053;-64
2022/04/23 07:20:18;;;;;;;3.15;2.58;;;;;;;22.40;42.35;90171.97;4987343;28;20820;-66
2022/04/23 07:25:34;;;;;;;30.63;16.38;;;;;;;25.87;38.19;90155.16;4987956;28;20034;-66
2022/04/23 07:28:00;;;;;;;4.00;2.03;;;;;;;25.90;37.31;90168.75;4990385;28;20102;-67
2022/04/23 07:30:27;;;;;;;1.52;1.38;;;;;;;28.15;35.06;90169.47;4991762;28;20081;-65
2022/04/23 07:32:57;;;;;;;1.30;1.20;;;;;;;31.78;31.09;90167.59;4991198;28;20066;-66
2022/04/23 07:38:12;;;;;;;2.67;1.92;;;;;;;29.83;33.75;90170.41;4992061;28;20045;-66
2022/04/23 07:40:40;;;;;;;1.55;1.15;;;;;;;32.68;29.16;90175.44;4991707;28;20036;-67
2022/04/23 07:43:12;;;;;;;1.95;1.60;;;;;;;31.90;29.45;90167.91;4991530;28;20117;-67
2022/04/23 07:45:38;;;;;;;2.30;1.75;;;;;;;29.24;33.41;90166.53;4991860;28;20118;-66
2022/04/23 07:48:08;;;;;;;1.85;1.75;;;;;;;25.91;36.65;90164.81;4990767;28;20030;-65
2022/04/23 07:50:35;;;;;;;2.33;1.67;;;;;;;22.84;41.08;90167.00;4989123;28;20049;-66
2022/04/23 07:53:01;;;;;;;2.35;1.20;;;;;;;23.06;41.82;90162.13;4990007;28;20065;-65
2022/04/23 07:55:29;;;;;;;1.75;1.60;;;;;;;20.74;45.00;90151.81;4989324;28;20451;-65
2022/04/23 07:57:57;;;;;;;0.90;0.90;;;;;;;22.75;41.99;90145.75;4990162;28;20029;-66
2022/04/23 08:00:23;;;;;;;1.50;1.08;;;;;;;23.11;41.75;90158.97;4989840;28;20022;-65
2022/04/23 08:02:48;;;;;;;2.90;2.38;;;;;;;24.18;40.81;90159.22;4989348;28;20451;-65
2022/04/23 08:05:13;;;;;;;1.52;1.42;;;;;;;24.22;41.28;90156.44;4972518;28;20075;-65
2022/04/23 08:07:39;;;;;;;5.05;1.30;;;;;;;24.14;40.81;90163.16;4989610;28;20108;-64
2022/04/23 08:10:06;;;;;;;2.65;0.95;;;;;;;24.69;40.18;90170.13;4989718;28;20124;-66
2022/04/23 08:12:35;;;;;;;3.05;1.95;;;;;;;21.57;43.50;90167.41;4991168;28;20030;-65
2022/04/23 08:15:01;;;;;;;4.13;1.98;;;;;;;20.77;45.97;90167.25;4991746;28;20042;-65
2022/04/23 08:17:26;;;;;;;1.65;1.55;;;;;;;21.83;43.96;90172.31;4990698;28;20044;-65
2022/04/23 08:19:52;;;;;;;1.90;1.27;;;;;;;20.73;46.91;90171.91;4991084;28;20046;-65
2022/04/23 08:22:17;;;;;;;3.58;1.65;;;;;;;21.83;44.65;90153.38;4991477;28;20030;-65
2022/04/23 08:24:42;;;;;;;3.15;1.92;;;;;;;23.31;42.42;90174.25;4989630;28;20030;-65
2022/04/23 08:27:08;;;;;;;2.88;2.17;;;;;;;22.72;43.17;90162.78;4991527;28;20381;-66
2022/04/23 08:32:17;;;;;;;2.88;1.85;;;;;;;20.55;45.87;90171.94;4990307;28;20718;-64
2022/04/23 08:34:43;;;;;;;2.60;1.85;;;;;;;18.50;49.74;90165.47;4991159;28;20030;-66
2022/04/23 08:37:08;;;;;;;1.35;1.30;;;;;;;18.33;51.48;90163.44;4990480;28;20029;-65
2022/04/23 08:39:34;;;;;;;2.53;1.88;;;;;;;17.54;52.93;90161.94;4989773;28;20022;-65
2022/04/23 08:42:02;;;;;;;4.35;1.85;;;;;;;20.09;48.15;90169.19;4991112;28;20098;-66
2022/04/23 08:44:47;;;;;;;3.15;1.38;;;;;;;22.83;42.92;90165.44;4983870;28;20042;-66
2022/04/23 08:47:13;;;;;;;3.65;2.05;;;;;;;18.79;48.98;90177.22;4990861;28;20563;-65
2022/04/23 08:49:42;;;;;;;1.90;1.80;;;;;;;19.76;48.38;90176.47;4991056;28;20407;-67
2022/04/23 08:52:31;;;;;;;2.17;1.52;;;;;;;23.73;42.10;90166.06;4991368;28;20089;-65
2022/04/23 08:55:02;;;;;;;2.28;2.03;;;;;;;23.82;40.93;90174.44;4991602;28;20023;-67
2022/04/23 08:57:28;;;;;;;2.42;1.52;;;;;;;24.22;41.07;90172.00;4991345;28;20440;-67
2022/04/23 08:59:56;;;;;;;2.45;2.10;;;;;;;24.52;39.93;90176.63;4991199;28;20137;-66
2022/04/23 09:02:26;;;;;;;1.63;1.52;;;;;;;24.79;39.52;90163.75;4976094;28;20037;-67
2022/04/23 09:04:53;;;;;;;1.95;1.75;;;;;;;24.73;38.98;90168.88;4995090;28;20026;-67
2022/04/23 09:07:23;;;;;;;3.70;1.67;;;;;;;24.87;40.67;90167.88;4995120;28;20031;-67
2022/04/23 09:09:53;;;;;;;1.48;1.38;;;;;;;24.87;39.55;90176.03;4994857;28;20113;-67
2022/04/23 09:12:24;;;;;;;1.65;1.55;;;;;;;25.77;38.46;90176.00;4994931;28;20038;-68
2022/04/23 09:14:51;;;;;;;1.00;0.80;;;;;;;26.54;36.75;90178.28;4994980;28;20026;-67
2022/04/23 09:25:42;;;;;;;3.80;1.42;;;;;;;26.00;37.19;90158.03;4994915;28;20092;-67
2022/04/23 09:28:21;;;;;;;3.17;1.50;;;;;;;26.47;36.99;90164.03;4994678;28;20026;-67
2022/04/23 09:30:49;;;;;;;2.33;1.77;;;;;;;25.31;36.85;90160.53;4994467;28;20670;-67
2022/04/23 09:33:15;;;;;;;5.75;2.90;;;;;;;25.58;36.87;90165.88;4994642;28;20376;-67
2022/04/23 09:35:53;;;;;;;2.53;2.03;;;;;;;24.57;39.41;90163.31;4994586;28;20061;-68
2022/04/23 09:38:18;;;;;;;2.05;1.20;;;;;;;24.08;39.70;90162.84;4994558;28;20030;-67
2022/04/23 09:41:16;;;;;;;1.48;1.27;;;;;;;23.65;39.60;90159.94;4994346;28;20026;-67
2022/04/23 09:43:43;;;;;;;1.77;1.15;;;;;;;22.74;40.43;90155.06;4994438;28;20535;-67
2022/04/23 09:46:09;;;;;;;5.38;1.33;;;;;;;22.71;40.73;90147.69;4994452;28;20029;-67
2022/04/23 09:48:43;;;;;;;1.40;1.30;;;;;;;25.26;38.56;90158.31;4994311;28;20041;-68
2022/04/23 09:51:26;;;;;;;2.13;1.48;;;;;;;24.89;36.30;90146.47;4994397;28;20022;-67
2022/04/23 09:53:53;;;;;;;1.55;1.45;;;;;;;24.19;37.71;90149.13;4994453;28;20038;-67
2022/04/23 09:56:24;;;;;;;3.03;1.33;;;;;;;25.36;37.22;90133.59;4994451;28;20078;-66
2022/04/23 09:58:50;;;;;;;2.15;1.95;;;;;;;25.66;35.56;90148.19;4994305;28;20084;-67
2022/04/23 10:01:18;;;;;;;1.60;1.20;;;;;;;26.38;35.49;90134.63;4994138;28;20030;-67
2022/04/23 10:04:14;;;;;;;1.40;1.30;;;;;;;25.41;36.42;90131.59;4994209;28;20105;-67
2022/04/23 10:06:43;;;;;;;2.70;1.63;;;;;;;24.89;36.59;90134.81;4993973;28;20410;-67
2022/04/23 10:09:09;;;;;;;2.20;1.48;;;;;;;24.33;38.25;90145.47;4991165;28;20045;-67
2022/04/23 10:11:41;;;;;;;2.47;1.92;;;;;;;21.52;47.66;90151.59;4993831;28;20049;-66
2022/04/23 10:14:10;;;;;;;1.65;1.55;;;;;;;20.20;50.86;90137.56;4992932;28;20089;-66
2022/04/23 10:16:36;;;;;;;2.33;1.50;;;;;;;19.87;52.68;90131.38;4993756;28;20026;-67
2022/04/23 10:19:02;;;;;;;2.00;1.80;;;;;;;18.64;59.48;90146.72;4993771;28;20084;-67
2022/04/23 10:21:50;;;;;;;2.42;2.22;;;;;;;20.62;55.17;90137.56;4993695;28;20050;-67
2022/04/23 10:24:27;;;;;;;2.25;1.50;;;;;;;23.13;48.39;90143.06;4993889;28;20034;-68
2022/04/23 10:27:07;;;;;;;1.77;1.10;;;;;;;23.40;48.56;90148.59;4993600;28;20033;-67
2022/04/23 10:29:33;;;;;;;3.88;1.58;;;;;;;24.87;43.22;90148.06;4993698;28;20037;-67
2022/04/23 10:32:10;;;;;;;2.90;1.30;;;;;;;25.30;43.82;90151.59;4993303;28;20410;-67
2022/04/23 10:34:36;;;;;;;2.90;2.20;;;;;;;24.67;43.89;90151.50;4993365;28;20062;-66
2022/04/23 10:37:25;;;;;;;1.40;1.30;;;;;;;25.67;42.34;90155.94;4993322;28;20034;-67
2022/04/23 10:39:53;;;;;;;3.25;1.83;;;;;;;23.50;46.54;90156.59;4993201;28;20610;-66
2022/04/23 10:42:23;;;;;;;2.05;1.85;;;;;;;21.79;50.60;90166.16;4993269;28;20113;-67
2022/04/23 10:44:51;;;;;;;1.60;1.50;;;;;;;21.75;51.75;90154.56;4989102;28;20185;-66
2022/04/23 10:47:30;;;;;;;1.63;1.40;;;;;;;22.27;49.79;90151.19;4993096;28;20037;-66
2022/04/23 10:50:34;;;;;;;1.55;1.45;;;;;;;22.05;49.68;90164.88;4992777;28;20054;-66
2022/04/23 10:53:02;;;;;;;3.15;1.88;;;;;;;22.28;49.60;90158.16;4992931;28;20554;-68
2022/04/23 10:55:27;;;;;;;1.42;1.35;;;;;;;23.81;46.31;90159.34;4992413;28;20038;-67
2022/04/23 10:57:54;;;;;;;2.88;1.52;;;;;;;22.10;48.53;90158.28;4992769;28;20037;-67
2022/04/23 11:00:24;;;;;;;1.40;1.30;;;;;;;22.74;48.05;90157.75;4992938;28;20093;-68
2022/04/23 11:02:57;;;;;;;5.65;2.47;;;;;;;21.46;50.06;90163.97;5001866;28;20041;-69
2022/04/23 11:13:54;;;;;;;5.90;2.10;;;;;;;22.89;46.20;90174.72;4991245;28;20038;-67
2022/04/23 11:16:22;;;;;;;2.95;2.00;;;;;;;21.07;49.21;90170.28;4974510;28;20035;-67
2022/04/23 11:18:54;;;;;;;3.50;2.33;;;;;;;20.71;52.92;90166.13;4992081;28;20102;-67
2022/04/23 11:21:26;;;;;;;2.20;1.75;;;;;;;21.66;50.32;90167.78;4991800;28;20085;-68
2022/04/23 11:23:54;;;;;;;1.88;1.63;;;;;;;21.97;51.69;90170.72;4992191;28;20470;-67
2022/04/23 11:26:41;;;;;;;3.42;1.98;;;;;;;22.90;47.83;90173.53;4991604;28;20564;-68
2022/04/23 11:29:07;;;;;;;1.17;1.10;;;;;;;22.84;46.61;90178.59;4991734;28;20034;-69
2022/04/23 11:31:32;;;;;;;1.98;1.42;;;;;;;24.06;45.65;90169.88;4992168;28;20034;-67
2022/04/23 11:33:59;;;;;;;3.00;1.50;;;;;;;24.88;44.51;90166.69;4992020;28;20032;-69
2022/04/23 11:36:29;;;;;;;2.47;1.40;;;;;;;25.28;41.40;90167.59;4991670;28;20125;-68
2022/04/23 11:39:03;;;;;;;2.28;2.08;;;;;;;25.07;41.48;90173.41;4991852;28;20026;-67
2022/04/23 11:41:34;;;;;;;2.45;1.42;;;;;;;24.23;40.91;90173.53;4991112;28;20049;-68
2022/04/23 11:44:13;;;;;;;1.75;1.27;;;;;;;24.62;41.25;90175.69;4991541;28;20022;-68
2022/04/23 11:46:43;;;;;;;1.17;1.10;;;;;;;23.46;41.14;90168.66;4991885;28;20042;-68
2022/04/23 11:49:09;;;;;;;6.97;4.40;;;;;;;22.21;43.12;90169.78;4991863;28;20027;-69
2022/04/23 11:51:34;;;;;;;2.63;2.08;;;;;;;21.56;42.65;90178.66;4973953;28;20030;-68
2022/04/23 11:54:00;;;;;;;1.35;1.10;;;;;;;20.38;45.10;90168.06;4991149;28;20428;-68
2022/04/23 11:56:33;;;;;;;1.20;1.20;;;;;;;20.56;44.72;90166.13;4991288;28;20030;-66
2022/04/23 11:59:07;;;;;;;4.82;1.35;;;;;;;21.72;44.76;90171.59;4990973;28;20089;-68
2022/04/23 12:01:33;;;;;;;2.45;1.92;;;;;;;23.73;40.00;90153.25;4991468;28;20034;-67
2022/04/23 12:03:59;;;;;;;2.13;1.50;;;;;;;25.21;37.33;90162.25;4991694;28;20073;-67
2022/04/23 12:06:25;;;;;;;1.10;1.00;;;;;;;26.58;35.65;90161.06;4990531;28;20030;-66